createdAt,value
2017-08-23T00:00:16.799Z,13.30
2017-08-23T00:01:16.794Z,14.40
2017-08-23T00:02:16.786Z,12.40
2017-08-23T00:03:16.782Z,11.20
2017-08-23T00:04:16.770Z,14.20
2017-08-23T00:05:16.762Z,13.40
2017-08-23T00:06:16.759Z,12.80
2017-08-23T00:07:16.751Z,13.40
2017-08-23T00:08:16.742Z,13.20
2017-08-23T00:09:16.740Z,11.90
2017-08-23T00:10:16.731Z,13.40
2017-08-23T00:11:16.727Z,12.30
2017-08-23T00:12:16.725Z,13.50
2017-08-23T00:13:16.717Z,12.70
2017-08-23T00:14:16.712Z,13.40
2017-08-23T00:15:16.703Z,12.60
2017-08-23T00:16:16.698Z,15.50
2017-08-23T00:17:16.690Z,13.50
2017-08-23T00:18:16.686Z,14.10
2017-08-23T00:19:16.677Z,13.70
2017-08-23T00:20:16.665Z,15.80
2017-08-23T00:21:16.662Z,16.00
2017-08-23T00:22:16.653Z,13.70
2017-08-23T00:23:16.650Z,19.00
2017-08-23T00:24:16.643Z,17.80
2017-08-23T00:25:16.634Z,17.70
2017-08-23T00:26:16.632Z,17.40
2017-08-23T00:27:16.621Z,15.70
2017-08-23T00:28:16.618Z,17.60
2017-08-23T00:29:16.614Z,16.40
2017-08-23T00:30:16.604Z,16.00
2017-08-23T00:31:16.600Z,16.40
2017-08-23T00:32:16.591Z,16.00
2017-08-23T00:33:16.587Z,14.90
2017-08-23T00:34:16.578Z,15.40
2017-08-23T00:35:16.577Z,17.00
2017-08-23T00:36:16.564Z,16.90
2017-08-23T00:37:16.555Z,16.50
2017-08-23T00:38:16.551Z,14.00
2017-08-23T00:39:16.541Z,14.80
2017-08-23T00:40:16.537Z,13.80
2017-08-23T00:41:16.532Z,14.90
2017-08-23T00:42:16.522Z,16.10
2017-08-23T00:43:16.533Z,15.90
2017-08-23T00:44:16.515Z,15.30
2017-08-23T00:45:16.506Z,14.50
2017-08-23T00:46:16.502Z,14.70
2017-08-23T00:47:16.493Z,16.30
2017-08-23T00:48:16.488Z,13.70
2017-08-23T00:49:16.479Z,15.00
2017-08-23T00:50:16.476Z,13.90
2017-08-23T00:51:16.468Z,12.60
2017-08-23T00:52:16.456Z,13.60
2017-08-23T00:53:16.450Z,15.30
2017-08-23T00:54:16.442Z,13.50
2017-08-23T00:55:16.439Z,12.80
2017-08-23T00:56:16.435Z,13.00
2017-08-23T00:57:16.428Z,13.60
2017-08-23T00:58:16.423Z,12.70
2017-08-23T00:59:16.413Z,13.70
2017-08-23T01:00:16.403Z,12.20
2017-08-23T01:01:16.398Z,11.90
2017-08-23T01:02:16.389Z,12.30
2017-08-23T01:03:16.386Z,13.40
2017-08-23T01:04:16.375Z,12.80
2017-08-23T01:05:16.372Z,13.50
2017-08-23T01:06:16.378Z,13.90
2017-08-23T01:07:16.358Z,11.00
2017-08-23T01:08:16.354Z,11.90
2017-08-23T01:09:16.348Z,11.70
2017-08-23T01:10:16.342Z,11.60
2017-08-23T01:11:16.333Z,13.60
2017-08-23T01:12:16.325Z,12.00
2017-08-23T01:13:16.322Z,12.20
2017-08-23T01:14:16.312Z,15.40
2017-08-23T01:15:16.308Z,10.40
2017-08-23T01:16:16.300Z,11.80
2017-08-23T01:17:16.287Z,11.00
2017-08-23T01:18:16.299Z,12.40
2017-08-23T01:19:16.274Z,11.00
2017-08-23T01:20:16.268Z,11.40
2017-08-23T01:21:16.259Z,12.20
2017-08-23T01:22:16.259Z,10.90
2017-08-23T01:23:16.247Z,11.10
2017-08-23T01:24:16.243Z,12.30
2017-08-23T01:25:16.238Z,11.70
2017-08-23T01:26:16.232Z,12.50
2017-08-23T01:27:16.225Z,11.20
2017-08-23T01:28:16.216Z,10.20
2017-08-23T01:29:16.207Z,10.50
2017-08-23T01:30:16.204Z,10.50
2017-08-23T01:31:16.195Z,12.70
2017-08-23T01:32:16.181Z,11.90
2017-08-23T01:33:16.177Z,12.60
2017-08-23T01:34:16.170Z,9.80
2017-08-23T01:35:16.165Z,12.00
2017-08-23T01:36:16.154Z,10.90
2017-08-23T01:37:16.149Z,10.70
2017-08-23T01:38:16.141Z,11.60
2017-08-23T01:39:16.136Z,10.10
2017-08-23T01:40:16.132Z,10.30
2017-08-23T01:41:16.123Z,10.80
2017-08-23T01:42:16.118Z,11.90
2017-08-23T01:43:16.110Z,11.20
2017-08-23T01:44:16.109Z,11.80
2017-08-23T01:45:16.098Z,12.00
2017-08-23T01:46:16.087Z,10.30
2017-08-23T01:47:16.083Z,10.50
2017-08-23T01:48:16.090Z,10.40
2017-08-23T01:49:16.062Z,13.10
2017-08-23T01:50:16.057Z,10.30
2017-08-23T01:51:16.048Z,11.60
2017-08-23T01:52:16.041Z,11.20
2017-08-23T01:53:16.033Z,9.70
2017-08-23T01:54:16.028Z,9.80
2017-08-23T01:55:16.019Z,11.20
2017-08-23T01:56:16.015Z,12.20
2017-08-23T01:57:16.009Z,10.70
2017-08-23T01:58:16.002Z,10.10
2017-08-23T01:59:15.996Z,9.60
2017-08-23T02:00:15.983Z,10.40
2017-08-23T02:01:15.974Z,9.90
2017-08-23T02:02:15.976Z,9.70
2017-08-23T02:03:15.961Z,10.30
2017-08-23T02:04:15.955Z,10.30
2017-08-23T02:05:15.950Z,11.00
2017-08-23T02:06:15.942Z,11.00
2017-08-23T02:07:15.937Z,10.50
2017-08-23T02:08:15.926Z,10.20
2017-08-23T02:09:15.921Z,11.60
2017-08-23T02:10:15.912Z,10.30
2017-08-23T02:11:15.908Z,12.60
2017-08-23T02:12:15.895Z,11.10
2017-08-23T02:13:15.885Z,10.60
2017-08-23T02:14:15.880Z,12.00
2017-08-23T02:15:15.873Z,11.30
2017-08-23T02:16:15.863Z,11.30
2017-08-23T02:17:15.857Z,9.90
2017-08-23T02:18:15.847Z,10.50
2017-08-23T02:19:15.842Z,9.90
2017-08-23T02:20:15.838Z,12.70
2017-08-23T02:21:15.830Z,10.20
2017-08-23T02:22:15.824Z,10.50
2017-08-23T02:23:15.815Z,12.90
2017-08-23T02:24:15.809Z,10.20
2017-08-23T02:25:15.800Z,11.20
2017-08-23T02:26:15.794Z,14.70
2017-08-23T02:27:15.784Z,13.00
2017-08-23T02:28:15.773Z,11.30
2017-08-23T02:29:15.766Z,10.40
2017-08-23T02:30:15.758Z,9.70
2017-08-23T02:31:15.750Z,11.10
2017-08-23T02:32:15.745Z,12.40
2017-08-23T02:33:15.734Z,11.70
2017-08-23T02:34:15.730Z,12.30
2017-08-23T02:35:15.740Z,11.00
2017-08-23T02:36:15.715Z,10.10
2017-08-23T02:37:15.711Z,11.40
2017-08-23T02:38:15.701Z,11.40
2017-08-23T02:39:15.696Z,10.60
2017-08-23T02:40:15.686Z,10.50
2017-08-23T02:41:15.685Z,11.70
2017-08-23T02:42:15.671Z,11.30
2017-08-23T02:43:15.665Z,10.20
2017-08-23T02:44:15.654Z,10.40
2017-08-23T02:45:15.644Z,13.40
2017-08-23T02:46:15.638Z,9.60
2017-08-23T02:47:15.629Z,10.70
2017-08-23T02:48:15.620Z,9.30
2017-08-23T02:49:15.622Z,9.60
2017-08-23T02:50:15.606Z,11.70
2017-08-23T02:51:15.600Z,10.40
2017-08-23T02:52:15.596Z,10.00
2017-08-23T02:53:15.587Z,11.20
2017-08-23T02:54:15.598Z,9.80
2017-08-23T02:55:15.572Z,11.00
2017-08-23T02:56:15.564Z,11.10
2017-08-23T02:57:15.555Z,11.60
2017-08-23T02:58:15.551Z,11.30
2017-08-23T02:59:15.541Z,11.90
2017-08-23T03:00:15.528Z,10.20
2017-08-23T03:01:15.524Z,9.80
2017-08-23T03:02:15.513Z,10.90
2017-08-23T03:03:15.507Z,10.20
2017-08-23T03:04:15.502Z,13.40
2017-08-23T03:05:15.493Z,9.60
2017-08-23T03:06:15.488Z,11.60
2017-08-23T03:07:15.479Z,9.80
2017-08-23T03:08:15.466Z,10.40
2017-08-23T03:09:15.460Z,9.30
2017-08-23T03:10:15.452Z,9.70
2017-08-23T03:11:15.444Z,10.40
2017-08-23T03:12:15.442Z,9.60
2017-08-23T03:13:15.428Z,11.20
2017-08-23T03:14:15.419Z,9.30
2017-08-23T03:15:15.415Z,12.30
2017-08-23T03:16:15.409Z,10.00
2017-08-23T03:17:15.399Z,8.90
2017-08-23T03:18:15.394Z,9.30
2017-08-23T03:19:15.385Z,9.50
2017-08-23T03:20:15.375Z,12.50
2017-08-23T03:21:15.371Z,9.60
2017-08-23T03:22:15.361Z,13.80
2017-08-23T03:23:15.354Z,10.10
2017-08-23T03:24:15.342Z,10.40
2017-08-23T03:25:15.332Z,10.80
2017-08-23T03:26:15.331Z,9.80
2017-08-23T03:27:15.318Z,10.50
2017-08-23T03:28:15.311Z,11.00
2017-08-23T03:29:15.301Z,11.90
2017-08-23T03:30:15.296Z,9.50
2017-08-23T03:31:15.289Z,10.20
2017-08-23T03:32:15.281Z,10.90
2017-08-23T03:33:15.276Z,11.50
2017-08-23T03:34:15.266Z,10.00
2017-08-23T03:35:15.261Z,10.30
2017-08-23T03:36:15.252Z,13.00
2017-08-23T03:37:15.242Z,9.90
2017-08-23T03:38:15.237Z,10.50
2017-08-23T03:39:15.227Z,13.30
2017-08-23T03:40:15.213Z,10.30
2017-08-23T03:41:15.209Z,10.30
2017-08-23T03:42:15.198Z,10.80
2017-08-23T03:43:15.193Z,9.70
2017-08-23T03:44:15.181Z,9.90
2017-08-23T03:45:15.177Z,12.60
2017-08-23T03:46:15.166Z,9.20
2017-08-23T03:47:15.159Z,11.30
2017-08-23T03:48:15.156Z,10.20
2017-08-23T03:49:15.148Z,11.50
2017-08-23T03:50:15.191Z,14.00
2017-08-23T03:51:15.131Z,9.80
2017-08-23T03:52:15.121Z,9.80
2017-08-23T03:53:15.116Z,10.60
2017-08-23T03:54:15.107Z,9.40
2017-08-23T03:55:15.101Z,8.60
2017-08-23T03:56:15.086Z,10.30
2017-08-23T03:57:15.078Z,9.40
2017-08-23T03:58:15.072Z,10.00
2017-08-23T03:59:15.062Z,9.80
2017-08-23T04:00:15.056Z,9.40
2017-08-23T04:01:15.046Z,9.00
2017-08-23T04:02:15.039Z,10.40
2017-08-23T04:03:15.030Z,10.90
2017-08-23T04:04:15.024Z,11.50
2017-08-23T04:05:15.018Z,11.50
2017-08-23T04:06:15.009Z,8.80
2017-08-23T04:07:15.004Z,8.60
2017-08-23T04:08:14.990Z,9.70
2017-08-23T04:09:14.981Z,8.20
2017-08-23T04:10:14.974Z,9.50
2017-08-23T04:11:14.965Z,9.00
2017-08-23T04:12:14.959Z,9.80
2017-08-23T04:13:14.953Z,9.70
2017-08-23T04:14:14.944Z,10.10
2017-08-23T04:15:14.938Z,9.50
2017-08-23T04:16:14.926Z,9.50
2017-08-23T04:17:14.921Z,8.80
2017-08-23T04:18:14.911Z,9.00
2017-08-23T04:19:14.908Z,9.80
2017-08-23T04:20:14.891Z,8.90
2017-08-23T04:21:14.882Z,9.10
2017-08-23T04:22:14.877Z,9.10
2017-08-23T04:23:14.866Z,12.10
2017-08-23T04:24:14.855Z,13.00
2017-08-23T04:25:14.851Z,11.20
2017-08-23T04:26:14.841Z,10.30
2017-08-23T04:27:14.851Z,10.30
2017-08-23T04:28:14.829Z,12.90
2017-08-23T04:29:14.820Z,12.00
2017-08-23T04:30:14.814Z,12.90
2017-08-23T04:31:14.803Z,10.60
2017-08-23T04:32:14.796Z,10.50
2017-08-23T04:33:14.786Z,10.00
2017-08-23T04:34:14.779Z,9.50
2017-08-23T04:35:14.770Z,9.30
2017-08-23T04:36:14.757Z,11.90
2017-08-23T04:37:14.751Z,10.70
2017-08-23T04:38:14.740Z,10.00
2017-08-23T04:39:14.734Z,11.20
2017-08-23T04:40:14.724Z,10.80
2017-08-23T04:41:14.716Z,10.60
2017-08-23T04:42:14.710Z,10.20
2017-08-23T04:43:14.700Z,9.40
2017-08-23T04:44:14.695Z,9.00
2017-08-23T04:45:14.689Z,9.90
2017-08-23T04:46:14.679Z,9.00
2017-08-23T04:47:14.673Z,13.20
2017-08-23T04:48:14.661Z,10.70
2017-08-23T04:49:14.656Z,9.50
2017-08-23T04:50:14.645Z,10.10
2017-08-23T04:51:14.639Z,10.40
2017-08-23T04:52:14.626Z,9.90
2017-08-23T04:53:14.615Z,11.10
2017-08-23T04:54:14.609Z,10.50
2017-08-23T04:55:14.599Z,9.50
2017-08-23T04:56:14.590Z,9.30
2017-08-23T04:57:14.585Z,10.80
2017-08-23T04:58:14.574Z,10.20
2017-08-23T04:59:14.569Z,9.00
2017-08-23T05:00:14.566Z,10.60
2017-08-23T05:01:14.854Z,10.70
2017-08-23T05:02:14.548Z,10.30
2017-08-23T05:03:14.540Z,9.40
2017-08-23T05:04:14.530Z,10.50
2017-08-23T05:05:14.521Z,11.30
2017-08-23T05:06:14.516Z,10.50
2017-08-23T05:07:14.504Z,9.80
2017-08-23T05:08:14.493Z,8.70
2017-08-23T05:09:14.487Z,10.10
2017-08-23T05:10:14.476Z,9.40
2017-08-23T05:11:14.472Z,8.20
2017-08-23T05:12:14.459Z,9.20
2017-08-23T05:13:14.455Z,11.60
2017-08-23T05:14:14.445Z,9.20
2017-08-23T05:15:14.439Z,12.70
2017-08-23T05:16:14.435Z,9.80
2017-08-23T05:17:14.426Z,11.00
2017-08-23T05:18:14.420Z,12.00
2017-08-23T05:19:14.412Z,13.20
2017-08-23T05:20:14.404Z,13.00
2017-08-23T05:21:14.395Z,12.80
2017-08-23T05:22:14.394Z,15.20
2017-08-23T05:23:14.382Z,14.60
2017-08-23T05:24:14.375Z,15.90
2017-08-23T05:25:14.366Z,15.70
2017-08-23T05:26:14.356Z,15.60
2017-08-23T05:27:14.354Z,14.80
2017-08-23T05:28:14.347Z,15.20
2017-08-23T05:29:14.338Z,16.40
2017-08-23T05:30:14.334Z,15.80
2017-08-23T05:31:14.329Z,16.20
2017-08-23T05:32:14.325Z,17.10
2017-08-23T05:33:14.321Z,15.50
2017-08-23T05:34:14.313Z,15.00
2017-08-23T05:35:14.311Z,15.40
2017-08-23T05:36:14.300Z,15.70
2017-08-23T05:37:14.297Z,14.90
2017-08-23T05:38:14.290Z,15.60
2017-08-23T05:39:14.287Z,14.30
2017-08-23T05:40:14.277Z,14.80
2017-08-23T05:41:14.269Z,15.90
2017-08-23T05:42:14.267Z,15.10
2017-08-23T05:43:14.259Z,16.80
2017-08-23T05:44:14.253Z,18.60
2017-08-23T05:45:14.253Z,17.00
2017-08-23T05:46:14.243Z,15.90
2017-08-23T05:47:14.241Z,16.40
2017-08-23T05:48:14.240Z,16.80
2017-08-23T05:49:14.234Z,16.40
2017-08-23T05:50:14.233Z,17.00
2017-08-23T05:51:14.227Z,15.60
2017-08-23T05:52:14.223Z,15.40
2017-08-23T05:53:14.220Z,16.60
2017-08-23T05:54:14.219Z,15.60
2017-08-23T05:55:14.214Z,15.00
2017-08-23T05:56:14.207Z,16.30
2017-08-23T05:57:14.207Z,16.80
2017-08-23T05:58:14.203Z,15.90
2017-08-23T05:59:14.203Z,16.80
2017-08-23T06:00:14.200Z,15.60
2017-08-23T06:01:14.196Z,15.60
2017-08-23T06:02:14.198Z,16.00
2017-08-23T06:03:14.195Z,16.00
2017-08-23T06:04:14.198Z,14.70
2017-08-23T06:05:14.200Z,15.30
2017-08-23T06:06:14.198Z,16.20
2017-08-23T06:07:14.200Z,15.70
2017-08-23T06:08:14.197Z,15.20
2017-08-23T06:09:14.200Z,15.60
2017-08-23T06:10:14.198Z,15.60
2017-08-23T06:11:14.201Z,15.10
2017-08-23T06:12:14.198Z,15.10
2017-08-23T06:13:14.195Z,14.80
2017-08-23T06:14:14.198Z,15.10
2017-08-23T06:15:14.200Z,14.70
2017-08-23T06:16:14.203Z,14.10
2017-08-23T06:17:14.207Z,14.10
2017-08-23T06:18:14.208Z,14.20
2017-08-23T06:19:14.212Z,14.30
2017-08-23T06:20:14.208Z,14.10
2017-08-23T06:21:14.210Z,13.70
2017-08-23T06:22:14.214Z,13.20
2017-08-23T06:23:14.217Z,13.60
2017-08-23T06:24:14.218Z,13.50
2017-08-23T06:25:14.220Z,12.50
2017-08-23T06:26:14.224Z,12.90
2017-08-23T06:27:14.227Z,11.80
2017-08-23T06:28:14.235Z,12.50
2017-08-23T06:29:14.239Z,12.70
2017-08-23T06:30:14.241Z,12.70
2017-08-23T06:31:14.246Z,12.80
2017-08-23T06:32:14.249Z,12.30
2017-08-23T06:33:14.251Z,12.70
2017-08-23T06:34:14.256Z,12.40
2017-08-23T06:35:14.258Z,12.20
2017-08-23T06:36:14.257Z,12.20
2017-08-23T06:37:14.263Z,12.50
2017-08-23T06:38:14.266Z,12.60
2017-08-23T06:39:14.272Z,11.90
2017-08-23T06:40:14.272Z,11.90
2017-08-23T06:41:14.280Z,12.10
2017-08-23T06:42:14.282Z,11.90
2017-08-23T06:43:14.287Z,11.00
2017-08-23T06:44:14.295Z,10.90
2017-08-23T06:45:14.298Z,10.70
2017-08-23T06:46:14.305Z,11.30
2017-08-23T06:47:14.307Z,11.70
2017-08-23T06:48:14.311Z,11.60
2017-08-23T06:49:14.317Z,11.60
2017-08-23T06:50:14.320Z,11.40
2017-08-23T06:51:14.326Z,11.20
2017-08-23T06:52:14.330Z,12.10
2017-08-23T06:53:14.329Z,11.60
2017-08-23T06:54:14.335Z,11.90
2017-08-23T06:55:14.339Z,11.50
2017-08-23T06:56:14.344Z,10.40
2017-08-23T06:57:14.349Z,10.60
2017-08-23T06:58:14.356Z,10.70
2017-08-23T06:59:14.359Z,10.90
2017-08-23T07:00:14.368Z,10.30
2017-08-23T07:01:14.376Z,11.00
2017-08-23T07:02:14.381Z,10.70
2017-08-23T07:03:14.388Z,10.70
2017-08-23T07:04:14.394Z,10.00
2017-08-23T07:05:14.398Z,10.30
2017-08-23T07:06:14.407Z,10.60
2017-08-23T07:07:14.411Z,10.00
2017-08-23T07:08:14.412Z,9.90
2017-08-23T07:09:14.422Z,10.00
2017-08-23T07:10:14.426Z,10.30
2017-08-23T07:11:14.436Z,10.30
2017-08-23T07:12:14.439Z,10.60
2017-08-23T07:13:14.449Z,10.20
2017-08-23T07:14:14.454Z,10.60
2017-08-23T07:15:14.464Z,10.90
2017-08-23T07:16:14.474Z,11.20
2017-08-23T07:17:14.781Z,11.60
2017-08-23T07:18:14.490Z,11.50
2017-08-23T07:19:14.495Z,13.80
2017-08-23T07:20:14.501Z,13.30
2017-08-23T07:21:14.507Z,12.20
2017-08-23T07:22:14.512Z,11.40
2017-08-23T07:23:14.524Z,11.20
2017-08-23T07:24:14.534Z,11.20
2017-08-23T07:25:14.540Z,11.20
2017-08-23T07:26:14.551Z,11.30
2017-08-23T07:27:14.557Z,12.20
2017-08-23T07:28:14.563Z,10.90
2017-08-23T07:29:14.571Z,10.50
2017-08-23T07:30:14.582Z,11.00
2017-08-23T07:31:14.588Z,11.70
2017-08-23T07:32:14.592Z,10.30
2017-08-23T07:33:14.603Z,10.30
2017-08-23T07:34:14.607Z,9.30
2017-08-23T07:35:14.618Z,9.00
2017-08-23T07:36:14.628Z,9.20
2017-08-23T07:37:14.634Z,9.30
2017-08-23T07:38:14.644Z,8.70
2017-08-23T07:39:14.650Z,8.70
2017-08-23T07:40:14.663Z,8.60
2017-08-23T07:41:14.675Z,8.60
2017-08-23T07:42:14.681Z,8.40
2017-08-23T07:43:14.692Z,8.30
2017-08-23T07:44:14.700Z,8.50
2017-08-23T07:45:14.711Z,7.60
2017-08-23T07:46:14.727Z,7.80
2017-08-23T07:47:14.733Z,7.10
2017-08-23T07:48:14.737Z,7.60
2017-08-23T07:49:14.744Z,7.50
2017-08-23T07:50:14.757Z,7.60
2017-08-23T07:51:14.766Z,7.20
2017-08-23T07:52:14.779Z,7.30
2017-08-23T07:53:14.792Z,7.70
2017-08-23T07:54:14.798Z,7.10
2017-08-23T07:55:14.812Z,7.20
2017-08-23T07:56:14.825Z,7.10
2017-08-23T07:57:14.835Z,7.40
2017-08-23T07:58:14.849Z,7.30
2017-08-23T07:59:14.857Z,7.10
2017-08-23T08:00:14.869Z,7.20
2017-08-23T08:01:14.879Z,7.40
2017-08-23T08:02:14.893Z,7.30
2017-08-23T08:03:15.253Z,7.00
2017-08-23T08:04:14.907Z,7.50
2017-08-23T08:05:14.922Z,7.50
2017-08-23T08:06:14.932Z,7.50
2017-08-23T08:07:14.949Z,7.40
2017-08-23T08:08:14.955Z,7.10
2017-08-23T08:09:14.965Z,7.60
2017-08-23T08:10:14.978Z,7.10
2017-08-23T08:11:14.987Z,7.20
2017-08-23T08:12:15.002Z,7.40
2017-08-23T08:13:15.015Z,7.70
2017-08-23T08:14:15.024Z,7.50
2017-08-23T08:15:15.038Z,7.30
2017-08-23T08:16:15.045Z,7.40
2017-08-23T08:17:15.057Z,7.20
2017-08-23T08:18:15.066Z,7.40
2017-08-23T08:19:15.081Z,6.10
2017-08-23T08:20:15.086Z,7.10
2017-08-23T08:21:15.095Z,6.50
2017-08-23T08:22:15.110Z,7.40
2017-08-23T08:23:15.119Z,6.20
2017-08-23T08:24:15.132Z,6.70
2017-08-23T08:25:15.146Z,7.10
2017-08-23T08:26:15.155Z,6.70
2017-08-23T08:27:15.168Z,6.60
2017-08-23T08:28:15.180Z,6.50
2017-08-23T08:29:15.185Z,5.80
2017-08-23T08:30:15.198Z,5.40
2017-08-23T08:31:15.207Z,5.40
2017-08-23T08:32:15.223Z,6.00
2017-08-23T08:33:15.233Z,6.20
2017-08-23T08:34:15.245Z,5.90
2017-08-23T08:35:15.255Z,5.00
2017-08-23T08:36:15.271Z,5.20
2017-08-23T08:37:15.285Z,5.60
2017-08-23T08:38:15.296Z,5.00
2017-08-23T08:39:15.310Z,5.20
2017-08-23T08:40:15.322Z,5.80
2017-08-23T08:41:15.335Z,6.30
2017-08-23T08:42:15.350Z,5.20
2017-08-23T08:43:15.368Z,5.90
2017-08-23T08:44:15.369Z,5.50
2017-08-23T08:45:15.385Z,5.50
2017-08-23T08:46:15.395Z,5.20
2017-08-23T08:47:15.412Z,6.00
2017-08-23T08:48:15.428Z,5.30
2017-08-23T08:49:15.438Z,8.40
2017-08-23T08:50:15.449Z,5.40
2017-08-23T08:51:15.466Z,5.00
2017-08-23T08:52:15.484Z,5.00
2017-08-23T08:53:15.495Z,4.80
2017-08-23T08:54:15.511Z,5.70
2017-08-23T08:55:15.523Z,5.10
2017-08-23T08:56:15.535Z,4.20
2017-08-23T08:57:15.552Z,4.10
2017-08-23T08:58:15.565Z,3.80
2017-08-23T08:59:15.583Z,4.90
2017-08-23T09:00:15.590Z,3.90
2017-08-23T09:01:15.603Z,4.00
2017-08-23T09:02:15.620Z,4.40
2017-08-23T09:03:15.634Z,4.00
2017-08-23T09:04:15.649Z,3.90
2017-08-23T09:05:15.664Z,4.30
2017-08-23T09:06:15.680Z,4.60
2017-08-23T09:07:15.703Z,6.50
2017-08-23T09:08:15.713Z,4.10
2017-08-23T09:09:15.732Z,4.20
2017-08-23T09:10:15.746Z,4.60
2017-08-23T09:11:15.764Z,4.10
2017-08-23T09:12:15.780Z,4.60
2017-08-23T09:13:16.145Z,4.80
2017-08-23T09:14:15.811Z,4.30
2017-08-23T09:15:15.826Z,4.10
2017-08-23T09:16:15.838Z,4.60
2017-08-23T09:17:15.856Z,3.80
2017-08-23T09:18:15.870Z,3.90
2017-08-23T09:19:15.890Z,3.90
2017-08-23T09:20:15.902Z,4.20
2017-08-23T09:21:15.921Z,4.20
2017-08-23T09:22:15.935Z,4.10
2017-08-23T09:23:15.952Z,3.70
2017-08-23T09:24:15.971Z,4.30
2017-08-23T09:25:15.986Z,4.60
2017-08-23T09:26:16.004Z,4.10
2017-08-23T09:27:16.019Z,4.30
2017-08-23T09:28:16.034Z,4.60
2017-08-23T09:29:16.047Z,4.70
2017-08-23T09:30:16.065Z,4.20
2017-08-23T09:31:16.079Z,4.80
2017-08-23T09:32:16.098Z,4.40
2017-08-23T09:33:16.117Z,4.50
2017-08-23T09:34:16.132Z,5.10
2017-08-23T09:35:16.150Z,3.80
2017-08-23T09:36:16.164Z,4.10
2017-08-23T09:37:16.184Z,4.60
2017-08-23T09:38:16.199Z,5.70
2017-08-23T09:39:16.217Z,5.50
2017-08-23T09:40:16.228Z,4.10
2017-08-23T09:41:16.243Z,4.80
2017-08-23T09:42:16.262Z,4.30
2017-08-23T09:43:16.277Z,4.00
2017-08-23T09:44:16.293Z,4.00
2017-08-23T09:45:16.312Z,4.10
2017-08-23T09:46:16.327Z,4.60
2017-08-23T09:47:16.343Z,4.10
2017-08-23T09:48:16.365Z,4.40
2017-08-23T09:49:16.379Z,4.90
2017-08-23T09:50:16.397Z,6.00
2017-08-23T09:51:16.412Z,5.50
2017-08-23T09:52:16.430Z,5.20
2017-08-23T09:53:16.442Z,5.60
2017-08-23T09:54:16.462Z,4.90
2017-08-23T09:55:16.475Z,5.40
2017-08-23T09:56:16.485Z,5.30
2017-08-23T09:57:16.512Z,5.20
2017-08-23T09:58:16.518Z,5.80
2017-08-23T09:59:16.538Z,5.10
2017-08-23T10:00:16.549Z,5.10
2017-08-23T10:01:16.564Z,5.80
2017-08-23T10:02:16.583Z,5.80
2017-08-23T10:03:16.594Z,5.60
2017-08-23T10:04:16.614Z,6.10
2017-08-23T10:05:16.631Z,5.30
2017-08-23T10:06:16.646Z,6.00
2017-08-23T10:07:16.663Z,5.60
2017-08-23T10:08:16.675Z,6.30
2017-08-23T10:09:16.693Z,5.20
2017-08-23T10:10:16.709Z,5.40
2017-08-23T10:11:16.724Z,5.30
2017-08-23T10:12:16.741Z,6.30
2017-08-23T10:13:16.748Z,6.10
2017-08-23T10:14:16.766Z,6.50
2017-08-23T10:15:16.798Z,6.60
2017-08-23T10:16:16.794Z,5.60
2017-08-23T10:17:16.812Z,6.10
2017-08-23T10:18:16.828Z,6.80
2017-08-23T10:19:16.843Z,6.70
2017-08-23T10:20:16.865Z,6.30
2017-08-23T10:21:16.875Z,6.20
2017-08-23T10:22:16.894Z,6.30
2017-08-23T10:23:16.907Z,7.20
2017-08-23T10:24:16.924Z,6.90
2017-08-23T10:25:16.938Z,7.30
2017-08-23T10:26:16.954Z,7.80
2017-08-23T10:27:16.970Z,7.60
2017-08-23T10:28:16.980Z,7.20
2017-08-23T10:29:16.996Z,7.20
2017-08-23T10:30:17.010Z,8.00
2017-08-23T10:31:17.029Z,7.80
2017-08-23T10:32:17.047Z,8.30
2017-08-23T10:33:17.061Z,8.10
2017-08-23T10:34:17.078Z,7.80
2017-08-23T10:35:17.093Z,7.90
2017-08-23T10:36:17.106Z,7.80
2017-08-23T10:37:17.121Z,7.90
2017-08-23T10:38:17.135Z,8.30
2017-08-23T10:39:17.153Z,8.20
2017-08-23T10:40:17.167Z,8.20
2017-08-23T10:41:17.183Z,8.20
2017-08-23T10:42:17.198Z,8.60
2017-08-23T10:43:17.216Z,8.30
2017-08-23T10:44:17.234Z,8.80
2017-08-23T10:45:17.248Z,8.20
2017-08-23T10:46:17.276Z,8.70
2017-08-23T10:47:17.282Z,8.80
2017-08-23T10:48:17.293Z,9.60
2017-08-23T10:49:17.312Z,9.30
2017-08-23T10:50:17.325Z,9.30
2017-08-23T10:51:17.342Z,9.90
2017-08-23T10:52:17.352Z,9.70
2017-08-23T10:53:17.368Z,9.70
2017-08-23T10:54:17.382Z,10.50
2017-08-23T10:55:17.394Z,10.10
2017-08-23T10:56:17.409Z,10.90
2017-08-23T10:57:17.424Z,10.50
2017-08-23T10:58:17.437Z,10.00
2017-08-23T10:59:17.450Z,10.70
2017-08-23T11:00:17.466Z,9.80
2017-08-23T11:01:17.482Z,9.30
2017-08-23T11:02:17.494Z,8.60
2017-08-23T11:03:17.509Z,9.30
2017-08-23T11:04:17.522Z,9.40
2017-08-23T11:05:17.535Z,9.80
2017-08-23T11:06:17.554Z,10.00
2017-08-23T11:07:17.561Z,9.80
2017-08-23T11:08:17.570Z,10.30
2017-08-23T11:09:17.585Z,9.90
2017-08-23T11:10:17.596Z,10.40
2017-08-23T11:11:17.612Z,10.40
2017-08-23T11:12:17.622Z,10.10
2017-08-23T11:13:17.637Z,9.70
2017-08-23T11:14:17.658Z,10.00
2017-08-23T11:15:17.666Z,10.00
2017-08-23T11:16:17.681Z,10.00
2017-08-23T11:17:17.693Z,10.30
2017-08-23T11:18:17.709Z,11.20
2017-08-23T11:19:17.721Z,10.50
2017-08-23T11:20:17.733Z,10.80
2017-08-23T11:21:17.747Z,11.00
2017-08-23T11:22:17.759Z,11.60
2017-08-23T11:23:17.772Z,11.30
2017-08-23T11:24:17.782Z,10.60
2017-08-23T11:25:17.793Z,11.40
2017-08-23T11:26:17.807Z,11.30
2017-08-23T11:27:17.819Z,13.00
2017-08-23T11:28:17.842Z,10.80
2017-08-23T11:29:17.842Z,12.60
2017-08-23T11:30:17.856Z,11.70
2017-08-23T11:31:17.875Z,12.50
2017-08-23T11:32:17.880Z,12.30
2017-08-23T11:33:17.892Z,12.50
2017-08-23T11:34:17.900Z,13.10
2017-08-23T11:35:17.918Z,13.40
2017-08-23T11:36:17.920Z,13.30
2017-08-23T11:37:17.926Z,13.10
2017-08-23T11:38:17.939Z,13.20
2017-08-23T11:39:17.946Z,14.20
2017-08-23T11:40:17.957Z,13.30
2017-08-23T11:41:17.966Z,14.80
2017-08-23T11:42:17.973Z,14.30
2017-08-23T11:43:17.982Z,14.40
2017-08-23T11:44:17.989Z,14.40
2017-08-23T11:45:17.997Z,13.10
2017-08-23T11:46:18.002Z,13.80
2017-08-23T11:47:18.011Z,13.70
2017-08-23T11:48:18.012Z,13.80
2017-08-23T11:49:18.036Z,13.70
2017-08-23T11:50:18.029Z,15.20
2017-08-23T11:51:18.035Z,14.00
2017-08-23T11:52:18.035Z,13.40
2017-08-23T11:53:18.043Z,13.50
2017-08-23T11:54:18.045Z,13.10
2017-08-23T11:55:18.054Z,12.70
2017-08-23T11:56:18.063Z,12.80
2017-08-23T11:57:18.067Z,11.70
2017-08-23T11:58:18.074Z,12.90
2017-08-23T11:59:18.081Z,12.50
2017-08-23T12:00:18.085Z,13.50
2017-08-23T12:01:18.087Z,13.40
2017-08-23T12:02:18.131Z,13.90
2017-08-23T12:03:18.098Z,13.40
2017-08-23T12:04:18.097Z,14.00
2017-08-23T12:05:18.105Z,14.20
2017-08-23T12:06:18.106Z,13.60
2017-08-23T12:07:18.112Z,13.30
2017-08-23T12:08:18.121Z,14.40
2017-08-23T12:09:18.119Z,14.30
2017-08-23T12:10:18.127Z,13.40
2017-08-23T12:11:18.129Z,14.70
2017-08-23T12:12:18.137Z,14.50
2017-08-23T12:13:18.143Z,12.80
2017-08-23T12:14:18.146Z,14.40
2017-08-23T12:15:18.153Z,14.30
2017-08-23T12:16:18.153Z,13.20
2017-08-23T12:17:18.160Z,13.40
2017-08-23T12:18:18.162Z,13.40
2017-08-23T12:19:18.167Z,13.80
2017-08-23T12:20:18.167Z,15.00
2017-08-23T12:21:18.174Z,13.50
2017-08-23T12:22:18.173Z,14.30
2017-08-23T12:23:18.176Z,15.30
2017-08-23T12:24:18.179Z,13.50
2017-08-23T12:25:18.185Z,13.60
2017-08-23T12:26:18.188Z,15.20
2017-08-23T12:27:18.192Z,14.00
2017-08-23T12:28:18.199Z,13.50
2017-08-23T12:29:18.201Z,15.30
2017-08-23T12:30:18.207Z,14.80
2017-08-23T12:31:18.207Z,14.00
2017-08-23T12:32:18.212Z,14.30
2017-08-23T12:33:18.217Z,13.50
2017-08-23T12:34:18.221Z,14.70
2017-08-23T12:35:18.220Z,14.90
2017-08-23T12:36:18.218Z,13.70
2017-08-23T12:37:18.223Z,15.70
2017-08-23T12:38:18.225Z,13.80
2017-08-23T12:39:18.257Z,14.60
2017-08-23T12:40:18.236Z,14.20
2017-08-23T12:41:18.238Z,14.60
2017-08-23T12:42:18.241Z,14.90
2017-08-23T12:43:18.243Z,15.00
2017-08-23T12:44:18.241Z,14.10
2017-08-23T12:45:18.246Z,13.50
2017-08-23T12:46:18.245Z,13.80
2017-08-23T12:47:18.251Z,14.20
2017-08-23T12:48:18.251Z,13.50
2017-08-23T12:49:18.258Z,13.20
2017-08-23T12:50:18.257Z,14.80
2017-08-23T12:51:18.263Z,15.00
2017-08-23T12:52:18.272Z,13.20
2017-08-23T12:53:18.269Z,13.50
2017-08-23T12:54:18.274Z,13.40
2017-08-23T12:55:18.275Z,13.70
2017-08-23T12:56:18.279Z,14.30
2017-08-23T12:57:18.282Z,14.60
2017-08-23T12:58:18.283Z,13.50
2017-08-23T12:59:18.288Z,15.20
2017-08-23T13:00:18.286Z,13.60
2017-08-23T13:01:18.287Z,14.20